createdAt,value
2019-03-20T00:28:23.019Z,2.20
2019-03-20T00:28:23.587Z,2.13
2019-03-20T00:28:24.187Z,2.16
2019-03-20T00:28:24.786Z,2.19
2019-03-20T00:28:25.388Z,2.13
2019-03-20T00:28:25.988Z,2.17
2019-03-20T00:28:26.586Z,2.16
2019-03-20T00:28:27.184Z,2.15
2019-03-20T00:29:21.185Z,2.23
2019-03-20T00:29:21.751Z,2.27
2019-03-20T00:29:22.351Z,2.31
2019-03-20T00:29:22.950Z,2.20
2019-03-20T00:29:23.549Z,2.28
2019-03-20T00:29:24.149Z,2.31
2019-03-20T00:29:24.750Z,2.27
2019-03-20T00:30:38.778Z,2.30
2019-03-20T00:30:39.372Z,2.27
2019-03-20T00:30:39.972Z,2.35
2019-03-20T00:30:40.571Z,2.44
2019-03-20T00:30:41.173Z,2.38
2019-03-20T00:30:41.771Z,2.30
2019-03-20T00:30:42.371Z,2.34
2019-03-20T00:31:36.475Z,2.34
2019-03-20T00:31:37.024Z,2.33
2019-03-20T00:31:37.624Z,2.41
2019-03-20T00:31:38.225Z,2.37
2019-03-20T00:31:38.823Z,2.45
2019-03-20T00:31:39.423Z,2.46
2019-03-20T00:31:40.024Z,2.45
2019-03-20T00:32:34.080Z,2.44
2019-03-20T00:32:34.676Z,2.35
2019-03-20T00:32:35.276Z,2.46
2019-03-20T00:32:35.876Z,2.48
2019-03-20T00:32:36.475Z,2.28
2019-03-20T00:32:37.074Z,2.44
2019-03-20T00:32:37.675Z,2.45
2019-03-20T00:33:31.735Z,2.44
2019-03-20T00:33:32.329Z,2.48
2019-03-20T00:33:32.930Z,2.45
2019-03-20T00:33:33.527Z,2.38
2019-03-20T00:33:34.127Z,2.44
2019-03-20T00:33:34.727Z,2.48
2019-03-20T00:33:35.326Z,2.46
2019-03-20T00:34:29.410Z,2.59
2019-03-20T00:34:29.988Z,2.56
2019-03-20T00:34:30.579Z,2.52
2019-03-20T00:34:31.179Z,2.53
2019-03-20T00:34:31.781Z,2.52
2019-03-20T00:34:32.379Z,2.55
2019-03-20T00:34:32.979Z,2.53
2019-03-20T00:35:27.042Z,2.69
2019-03-20T00:35:27.633Z,2.63
2019-03-20T00:35:28.232Z,2.64
2019-03-20T00:35:28.832Z,2.70
2019-03-20T00:35:29.432Z,2.67
2019-03-20T00:35:30.031Z,2.63
2019-03-20T00:35:30.631Z,2.67
2019-03-20T00:36:24.688Z,2.71
2019-03-20T00:36:25.284Z,2.76
2019-03-20T00:36:25.885Z,2.73
2019-03-20T00:36:26.484Z,2.70
2019-03-20T00:36:27.084Z,2.71
2019-03-20T00:36:27.685Z,2.69
2019-03-20T00:36:28.284Z,2.73
2019-03-20T00:37:22.341Z,2.85
2019-03-20T00:37:22.942Z,2.89
2019-03-20T00:37:23.535Z,2.88
2019-03-20T00:37:24.137Z,2.81
2019-03-20T00:37:24.737Z,2.89
2019-03-20T00:37:25.335Z,2.77
2019-03-20T00:37:25.934Z,2.77
2019-03-20T00:38:19.993Z,2.84
2019-03-20T00:38:20.591Z,2.87
2019-03-20T00:38:21.187Z,2.87
2019-03-20T00:38:21.788Z,2.91
2019-03-20T00:38:22.389Z,2.94
2019-03-20T00:38:22.988Z,2.89
2019-03-20T00:38:23.587Z,2.97
2019-03-20T00:39:17.668Z,2.92
2019-03-20T00:39:18.239Z,3.06
2019-03-20T00:39:18.840Z,2.94
2019-03-20T00:39:19.440Z,2.97
2019-03-20T00:39:20.041Z,2.95
2019-03-20T00:39:20.638Z,3.00
2019-03-20T00:39:21.239Z,3.02
2019-03-20T00:40:15.296Z,3.06
2019-03-20T00:40:15.892Z,3.07
2019-03-20T00:40:16.492Z,3.07
2019-03-20T00:40:17.091Z,3.07
2019-03-20T00:40:17.694Z,3.07
2019-03-20T00:40:18.291Z,3.12
2019-03-20T00:40:18.890Z,3.07
2019-03-20T00:41:12.948Z,3.23
2019-03-20T00:41:13.544Z,3.20
2019-03-20T00:41:14.144Z,3.21
2019-03-20T00:41:14.743Z,3.30
2019-03-20T00:41:15.343Z,3.28
2019-03-20T00:41:15.946Z,3.25
2019-03-20T00:41:16.542Z,3.31
2019-03-20T00:42:10.602Z,3.33
2019-03-20T00:42:11.197Z,3.34
2019-03-20T00:42:11.796Z,3.30
2019-03-20T00:42:12.398Z,3.36
2019-03-20T00:42:12.995Z,3.28
2019-03-20T00:42:13.594Z,3.39
2019-03-20T00:42:14.194Z,3.28
2019-03-20T00:43:08.252Z,3.46
2019-03-20T00:43:08.852Z,3.36
2019-03-20T00:43:09.456Z,3.52
2019-03-20T00:43:10.047Z,3.42
2019-03-20T00:43:10.646Z,3.42
2019-03-20T00:43:11.248Z,3.42
2019-03-20T00:43:11.850Z,3.40
2019-03-20T00:44:05.930Z,3.47
2019-03-20T00:44:06.499Z,3.54
2019-03-20T00:44:07.100Z,3.61
2019-03-20T00:44:07.700Z,3.65
2019-03-20T00:44:08.299Z,3.54
2019-03-20T00:44:08.898Z,3.52
2019-03-20T00:44:09.505Z,3.54
2019-03-20T00:45:03.556Z,3.64
2019-03-20T00:45:04.151Z,3.71
2019-03-20T00:45:04.751Z,3.58
2019-03-20T00:45:05.361Z,3.62
2019-03-20T00:45:05.951Z,3.65
2019-03-20T00:45:06.551Z,3.65
2019-03-20T00:45:07.150Z,3.68
2019-03-20T00:46:01.212Z,3.75
2019-03-20T00:46:01.803Z,3.75
2019-03-20T00:46:02.402Z,3.76
2019-03-20T00:46:03.006Z,3.76
2019-03-20T00:46:03.605Z,3.72
2019-03-20T00:46:04.203Z,3.67
2019-03-20T00:46:04.802Z,3.76
2019-03-20T00:46:58.867Z,3.71
2019-03-20T00:46:59.454Z,3.75
2019-03-20T00:47:00.054Z,3.78
2019-03-20T00:47:00.654Z,3.76
2019-03-20T00:47:01.253Z,3.89
2019-03-20T00:47:01.852Z,3.79
2019-03-20T00:47:02.453Z,3.82
2019-03-20T00:47:56.514Z,3.94
2019-03-20T00:47:57.107Z,3.83
2019-03-20T00:47:57.706Z,3.88
2019-03-20T00:47:58.306Z,3.86
2019-03-20T00:47:58.905Z,3.79
2019-03-20T00:47:59.508Z,3.80
2019-03-20T00:48:00.109Z,3.86
2019-03-20T00:48:55.112Z,3.90
2019-03-20T00:48:55.680Z,3.98
2019-03-20T00:48:56.284Z,3.97
2019-03-20T00:48:56.880Z,4.00
2019-03-20T00:48:57.479Z,3.96
2019-03-20T00:48:58.078Z,3.97
2019-03-20T00:49:52.635Z,4.00
2019-03-20T00:49:53.242Z,3.92
2019-03-20T00:49:53.829Z,4.01
2019-03-20T00:49:54.429Z,4.01
2019-03-20T00:49:55.028Z,4.01
2019-03-20T00:49:57.976Z,4.04
2019-03-20T00:49:58.081Z,4.06
2019-03-20T00:50:50.284Z,4.04
2019-03-20T00:50:50.882Z,4.14
2019-03-20T00:50:51.485Z,4.15
2019-03-20T00:50:52.081Z,4.15
2019-03-20T00:50:52.680Z,4.00
2019-03-20T00:50:53.280Z,3.98
2019-03-20T00:50:53.881Z,4.18
2019-03-20T00:51:50.398Z,4.10
2019-03-20T00:51:50.993Z,4.12
2019-03-20T00:51:51.597Z,4.03
2019-03-20T00:52:45.590Z,3.97
2019-03-20T00:52:46.190Z,4.12
2019-03-20T00:52:46.785Z,4.00
2019-03-20T00:52:47.385Z,3.98
2019-03-20T00:52:47.985Z,4.12
2019-03-20T00:52:48.586Z,4.10
2019-03-20T00:52:49.186Z,4.08
2019-03-20T00:53:43.241Z,4.08
2019-03-20T00:53:43.835Z,3.98
2019-03-20T00:53:44.434Z,4.10
2019-03-20T00:53:45.036Z,4.04
2019-03-20T00:53:45.637Z,4.04
2019-03-20T00:53:46.236Z,4.14
2019-03-20T00:53:46.840Z,4.04
2019-03-20T00:54:40.919Z,4.07
2019-03-20T00:54:41.487Z,4.07
2019-03-20T00:54:42.095Z,4.06
2019-03-20T00:54:42.688Z,4.10
2019-03-20T00:54:43.286Z,4.10
2019-03-20T00:54:43.889Z,4.10
2019-03-20T00:54:44.486Z,4.07
2019-03-20T00:55:38.545Z,4.10
2019-03-20T00:55:39.143Z,4.14
2019-03-20T00:55:39.739Z,4.16
2019-03-20T00:55:40.339Z,4.10
2019-03-20T00:55:40.939Z,4.08
2019-03-20T00:55:41.539Z,4.18
2019-03-20T00:55:42.138Z,4.16
2019-03-20T00:56:36.194Z,4.26
2019-03-20T00:56:36.793Z,4.28
2019-03-20T00:56:37.391Z,4.14
2019-03-20T00:56:38.052Z,4.19
2019-03-20T00:56:38.591Z,4.22
2019-03-20T00:56:39.190Z,4.15
2019-03-20T00:56:39.791Z,4.18
2019-03-20T00:57:33.847Z,4.21
2019-03-20T00:57:34.443Z,4.19
2019-03-20T00:57:35.043Z,4.19
2019-03-20T00:57:35.643Z,4.25
2019-03-20T00:57:36.245Z,4.16
2019-03-20T00:57:36.851Z,4.24
2019-03-20T00:57:37.444Z,4.15
2019-03-20T00:58:31.501Z,4.24
2019-03-20T00:58:32.096Z,4.26
2019-03-20T00:58:32.694Z,4.28
2019-03-20T00:58:33.296Z,4.26
2019-03-20T00:58:33.894Z,4.26
2019-03-20T00:58:34.494Z,4.26
2019-03-20T00:58:35.095Z,4.26
2019-03-20T00:59:29.176Z,4.28
2019-03-20T00:59:29.749Z,4.32
2019-03-20T00:59:30.344Z,4.33
2019-03-20T00:59:30.944Z,4.34
2019-03-20T00:59:31.544Z,4.34
2019-03-20T00:59:32.146Z,4.33
2019-03-20T00:59:32.744Z,4.34
2019-03-20T01:00:26.807Z,4.26
2019-03-20T01:00:27.399Z,4.33
2019-03-20T01:00:27.999Z,4.34
2019-03-20T01:00:28.598Z,4.39
2019-03-20T01:00:29.198Z,4.40
2019-03-20T01:00:29.797Z,4.40
2019-03-20T01:00:30.396Z,4.37
2019-03-20T01:01:24.454Z,4.43
2019-03-20T01:01:25.049Z,4.46
2019-03-20T01:01:25.649Z,4.40
2019-03-20T01:01:26.250Z,4.47
2019-03-20T01:01:26.849Z,4.39
2019-03-20T01:01:27.449Z,4.54
2019-03-20T01:01:28.049Z,4.52
2019-03-20T01:02:22.105Z,4.55
2019-03-20T01:02:22.702Z,4.51
2019-03-20T01:02:23.302Z,4.58
2019-03-20T01:02:23.902Z,4.51
2019-03-20T01:02:24.505Z,4.55
2019-03-20T01:02:25.101Z,4.55
2019-03-20T01:02:25.700Z,4.57
2019-03-20T01:03:19.762Z,4.62
2019-03-20T01:03:20.354Z,4.62
2019-03-20T01:03:20.953Z,4.55
2019-03-20T01:03:21.553Z,4.64
2019-03-20T01:03:22.154Z,4.58
2019-03-20T01:03:22.753Z,4.61
2019-03-20T01:03:23.353Z,4.65
2019-03-20T01:04:17.443Z,4.61
2019-03-20T01:04:18.010Z,4.67
2019-03-20T01:04:18.608Z,4.64
2019-03-20T01:04:19.205Z,4.67
2019-03-20T01:04:19.806Z,4.72
2019-03-20T01:04:20.404Z,4.64
2019-03-20T01:04:21.004Z,4.67
2019-03-20T01:05:15.060Z,4.70
2019-03-20T01:05:15.656Z,4.72
2019-03-20T01:05:16.256Z,4.75
2019-03-20T01:05:16.858Z,4.77
2019-03-20T01:05:17.457Z,4.75
2019-03-20T01:05:18.056Z,4.75
2019-03-20T01:05:18.656Z,4.69
2019-03-20T01:06:12.717Z,4.75
2019-03-20T01:06:13.309Z,4.84
2019-03-20T01:06:13.910Z,4.80
2019-03-20T01:06:14.509Z,4.88
2019-03-20T01:06:15.109Z,4.73
2019-03-20T01:06:15.711Z,4.83
2019-03-20T01:06:16.309Z,4.75
2019-03-20T01:07:10.373Z,4.88
2019-03-20T01:07:10.961Z,4.89
2019-03-20T01:07:11.566Z,4.84
2019-03-20T01:07:12.161Z,4.89
2019-03-20T01:07:12.761Z,4.88
2019-03-20T01:07:13.361Z,4.86
2019-03-20T01:07:13.960Z,4.88
2019-03-20T01:08:08.017Z,4.89
2019-03-20T01:08:08.616Z,4.94
2019-03-20T01:08:09.213Z,4.96
2019-03-20T01:08:09.813Z,4.94
2019-03-20T01:08:10.414Z,4.95
2019-03-20T01:08:11.011Z,4.92
2019-03-20T01:08:11.611Z,4.96
2019-03-20T01:09:05.679Z,4.96
2019-03-20T01:09:06.263Z,4.96
2019-03-20T01:09:06.864Z,4.96
2019-03-20T01:09:07.464Z,4.96
2019-03-20T01:09:08.063Z,4.98
2019-03-20T01:09:08.662Z,4.99
2019-03-20T01:09:09.264Z,4.96
2019-03-20T01:10:03.353Z,5.02
2019-03-20T01:10:03.917Z,5.01
2019-03-20T01:10:04.516Z,4.99
2019-03-20T01:10:05.115Z,5.04
2019-03-20T01:10:05.715Z,5.02
2019-03-20T01:10:06.315Z,5.02
2019-03-20T01:10:06.915Z,5.04
2019-03-20T01:11:00.974Z,5.02
2019-03-20T01:11:01.568Z,4.99
2019-03-20T01:11:02.169Z,4.99
2019-03-20T01:11:02.767Z,5.14
2019-03-20T01:11:03.368Z,5.14
2019-03-20T01:11:03.968Z,5.02
2019-03-20T01:11:04.581Z,5.07
2019-03-20T01:11:58.624Z,5.14
2019-03-20T01:11:59.221Z,5.10
2019-03-20T01:11:59.818Z,5.10
2019-03-20T01:12:00.419Z,5.07
2019-03-20T01:12:01.018Z,5.10
2019-03-20T01:12:01.617Z,5.02
2019-03-20T01:12:02.219Z,5.07
2019-03-20T01:12:56.275Z,5.02
2019-03-20T01:12:56.873Z,5.17
2019-03-20T01:12:57.472Z,5.17
2019-03-20T01:12:58.074Z,5.12
2019-03-20T01:12:58.670Z,5.12
2019-03-20T01:12:59.270Z,5.10
2019-03-20T01:12:59.873Z,5.17
2019-03-20T01:13:53.927Z,5.17
2019-03-20T01:13:54.524Z,5.12
2019-03-20T01:13:55.126Z,5.16
2019-03-20T01:13:55.721Z,5.17
2019-03-20T01:13:56.321Z,5.17
2019-03-20T01:13:56.923Z,5.12
2019-03-20T01:13:57.522Z,5.10
2019-03-20T01:14:51.582Z,5.13
2019-03-20T01:14:52.175Z,5.13
2019-03-20T01:14:52.776Z,5.16
2019-03-20T01:14:53.374Z,5.14
2019-03-20T01:14:53.980Z,5.13
2019-03-20T01:14:54.575Z,5.14
2019-03-20T01:14:55.173Z,5.10
2019-03-20T01:15:49.255Z,5.16
2019-03-20T01:15:49.840Z,5.10
2019-03-20T01:15:50.424Z,5.14
2019-03-20T01:15:51.023Z,5.14
2019-03-20T01:15:51.628Z,5.14
2019-03-20T01:15:52.224Z,5.20
2019-03-20T01:15:52.822Z,5.13
2019-03-20T01:16:46.371Z,5.17
2019-03-20T01:16:46.966Z,5.20
2019-03-20T01:16:47.568Z,5.23
2019-03-20T01:16:48.167Z,5.17
2019-03-20T01:16:48.767Z,5.19
2019-03-20T01:16:49.366Z,5.20
2019-03-20T01:16:49.965Z,5.27
2019-03-20T01:16:50.566Z,5.19
2019-03-20T01:17:44.534Z,5.23
2019-03-20T01:17:45.135Z,5.17
2019-03-20T01:17:45.786Z,5.22
2019-03-20T01:17:46.330Z,5.25
2019-03-20T01:17:46.928Z,5.22
2019-03-20T01:17:47.529Z,5.19
2019-03-20T01:17:48.129Z,5.20
2019-03-20T01:19:02.154Z,5.25
2019-03-20T01:19:02.754Z,5.30
2019-03-20T01:19:03.351Z,5.19
2019-03-20T01:19:03.951Z,5.27
2019-03-20T01:19:04.548Z,5.28
2019-03-20T01:19:05.152Z,5.35
2019-03-20T01:19:05.749Z,5.31
2019-03-20T01:19:59.806Z,5.28
2019-03-20T01:20:00.402Z,5.28
2019-03-20T01:20:01.002Z,5.31
2019-03-20T01:20:01.609Z,5.25
2019-03-20T01:20:02.202Z,5.31
2019-03-20T01:20:02.802Z,5.28
2019-03-20T01:20:03.401Z,5.30
2019-03-20T01:20:56.981Z,5.27
2019-03-20T01:20:57.543Z,5.28
2019-03-20T01:20:58.142Z,5.25
2019-03-20T01:20:58.741Z,5.35
2019-03-20T01:20:59.343Z,5.31
2019-03-20T01:20:59.941Z,5.32
2019-03-20T01:21:00.540Z,5.30
2019-03-20T01:21:01.141Z,5.28
2019-03-20T01:22:06.786Z,5.31
2019-03-20T01:22:07.380Z,5.35
2019-03-20T01:22:07.979Z,5.37
2019-03-20T01:22:08.580Z,5.30
2019-03-20T01:22:09.179Z,5.35
2019-03-20T01:22:09.779Z,5.40
2019-03-20T01:22:10.378Z,5.31
2019-03-20T01:23:23.795Z,5.31
2019-03-20T01:23:24.384Z,5.38
2019-03-20T01:23:24.984Z,5.37
2019-03-20T01:23:25.593Z,5.35
2019-03-20T01:23:26.184Z,5.37
2019-03-20T01:23:26.787Z,5.40
2019-03-20T01:23:27.383Z,5.35
2019-03-20T01:24:21.440Z,5.37
2019-03-20T01:24:22.036Z,5.34
2019-03-20T01:24:22.637Z,5.38
2019-03-20T01:24:23.235Z,5.43
2019-03-20T01:24:23.836Z,5.38
2019-03-20T01:24:24.436Z,5.41
2019-03-20T01:24:25.036Z,5.37
2019-03-20T01:25:19.091Z,5.35
2019-03-20T01:25:19.688Z,5.49
2019-03-20T01:25:20.287Z,5.48
2019-03-20T01:25:20.891Z,5.37
2019-03-20T01:25:21.489Z,5.41
2019-03-20T01:25:22.096Z,5.46
2019-03-20T01:25:22.687Z,5.49
2019-03-20T01:26:16.768Z,5.43
2019-03-20T01:26:17.339Z,5.37
2019-03-20T01:26:17.939Z,5.45
2019-03-20T01:26:18.539Z,5.50
2019-03-20T01:26:19.139Z,5.46
2019-03-20T01:26:19.739Z,5.46
2019-03-20T01:26:20.338Z,5.46
2019-03-20T01:27:14.397Z,5.45
2019-03-20T01:27:14.991Z,5.48
2019-03-20T01:27:15.591Z,5.50
2019-03-20T01:27:16.191Z,5.52
2019-03-20T01:27:16.791Z,5.52
2019-03-20T01:27:17.391Z,5.50
2019-03-20T01:27:17.994Z,5.50
2019-03-20T01:28:12.046Z,5.45
2019-03-20T01:28:12.644Z,5.49
2019-03-20T01:28:13.272Z,5.52
2019-03-20T01:28:13.841Z,5.49
2019-03-20T01:28:14.443Z,5.56
2019-03-20T01:28:15.042Z,5.55
2019-03-20T01:28:15.642Z,5.50
2019-03-20T01:29:09.699Z,5.55
2019-03-20T01:29:10.296Z,5.46
2019-03-20T01:29:10.894Z,5.56
2019-03-20T01:29:11.497Z,5.56
2019-03-20T01:29:12.096Z,5.50
2019-03-20T01:29:12.693Z,5.56
2019-03-20T01:29:13.295Z,5.48
2019-03-20T01:30:07.353Z,5.52
2019-03-20T01:30:07.946Z,5.64
2019-03-20T01:30:08.546Z,5.59
2019-03-20T01:30:09.146Z,5.56
2019-03-20T01:30:09.745Z,5.57
2019-03-20T01:30:10.345Z,5.66
2019-03-20T01:30:10.945Z,5.49
2019-03-20T01:31:05.005Z,5.53
2019-03-20T01:31:05.598Z,5.59
2019-03-20T01:31:06.198Z,5.56
2019-03-20T01:31:06.798Z,5.59
2019-03-20T01:31:07.397Z,5.55
2019-03-20T01:31:08.000Z,5.56
2019-03-20T01:31:08.597Z,5.55
2019-03-20T01:32:02.677Z,5.59
2019-03-20T01:32:03.251Z,5.63
2019-03-20T01:32:03.849Z,5.57
2019-03-20T01:32:04.450Z,5.57
2019-03-20T01:32:05.054Z,5.57
2019-03-20T01:32:05.649Z,5.60
2019-03-20T01:32:06.251Z,5.60
2019-03-20T01:33:00.308Z,5.67
2019-03-20T01:33:00.902Z,5.64
2019-03-20T01:33:01.502Z,5.64
2019-03-20T01:33:02.101Z,5.64
2019-03-20T01:33:02.703Z,5.67
2019-03-20T01:33:03.302Z,5.64
2019-03-20T01:33:03.901Z,5.67
2019-03-20T01:33:57.957Z,5.70
2019-03-20T01:33:58.552Z,5.67
2019-03-20T01:33:59.154Z,5.75
2019-03-20T01:33:59.753Z,5.68
2019-03-20T01:34:00.357Z,5.67
2019-03-20T01:34:00.952Z,5.64
2019-03-20T01:34:01.554Z,5.70
2019-03-20T01:34:55.608Z,5.71
2019-03-20T01:34:56.206Z,5.68
2019-03-20T01:34:56.804Z,5.77
2019-03-20T01:34:57.407Z,5.68
2019-03-20T01:34:58.004Z,5.68
2019-03-20T01:34:58.606Z,5.67
2019-03-20T01:34:59.204Z,5.73
2019-03-20T01:35:53.262Z,5.71
2019-03-20T01:35:53.857Z,5.70
2019-03-20T01:35:54.456Z,5.70
2019-03-20T01:35:55.058Z,5.82
2019-03-20T01:35:55.655Z,5.68
2019-03-20T01:35:56.259Z,5.71
2019-03-20T01:35:56.855Z,5.70
2019-03-20T01:36:50.937Z,5.75
2019-03-20T01:36:51.509Z,5.75
2019-03-20T01:36:52.108Z,5.74
2019-03-20T01:36:52.710Z,5.73
2019-03-20T01:36:53.309Z,5.67
2019-03-20T01:36:53.907Z,5.77
2019-03-20T01:36:54.507Z,5.73
2019-03-20T01:37:48.564Z,5.77
2019-03-20T01:37:49.160Z,5.82
2019-03-20T01:37:49.759Z,5.74
2019-03-20T01:37:50.360Z,5.68
2019-03-20T01:37:50.966Z,5.68
2019-03-20T01:37:51.560Z,5.68
2019-03-20T01:37:52.159Z,5.74
2019-03-20T01:38:46.216Z,5.74
2019-03-20T01:38:46.813Z,5.68
2019-03-20T01:38:47.411Z,5.77
2019-03-20T01:38:48.017Z,5.77
2019-03-20T01:38:48.610Z,5.71
2019-03-20T01:38:49.210Z,5.70
2019-03-20T01:38:49.812Z,5.75
2019-03-20T01:39:43.868Z,5.81
2019-03-20T01:39:44.467Z,5.83
2019-03-20T01:39:45.067Z,5.73
2019-03-20T01:39:45.664Z,5.82
2019-03-20T01:39:46.264Z,5.82
2019-03-20T01:39:46.868Z,5.86
2019-03-20T01:39:47.463Z,5.70
2019-03-20T01:40:41.522Z,5.85
2019-03-20T01:40:42.116Z,5.82
2019-03-20T01:40:42.717Z,5.75
2019-03-20T01:40:43.318Z,5.83
2019-03-20T01:40:43.915Z,5.78
2019-03-20T01:40:44.518Z,5.85
2019-03-20T01:40:45.115Z,5.71
2019-03-20T01:41:39.197Z,5.75
2019-03-20T01:41:39.767Z,5.82
2019-03-20T01:41:40.367Z,5.74
2019-03-20T01:41:40.966Z,5.77
2019-03-20T01:41:41.568Z,5.81
2019-03-20T01:41:42.167Z,5.85
2019-03-20T01:41:42.767Z,5.74
2019-03-20T01:42:36.825Z,5.73
2019-03-20T01:42:37.418Z,5.74
2019-03-20T01:42:38.018Z,5.73
2019-03-20T01:42:38.617Z,5.77
2019-03-20T01:42:39.218Z,5.71
2019-03-20T01:42:39.819Z,5.78
2019-03-20T01:42:40.416Z,5.75
2019-03-20T01:43:34.475Z,5.78
2019-03-20T01:43:35.075Z,5.86
2019-03-20T01:43:35.670Z,5.85
2019-03-20T01:43:36.270Z,5.83
2019-03-20T01:43:36.870Z,5.86
2019-03-20T01:43:37.472Z,5.82
2019-03-20T01:43:38.071Z,5.86
2019-03-20T01:44:32.125Z,5.78
2019-03-20T01:44:32.722Z,5.88
2019-03-20T01:44:33.324Z,5.86
2019-03-20T01:44:33.922Z,5.86
2019-03-20T01:44:34.521Z,5.86
2019-03-20T01:44:35.122Z,5.89
2019-03-20T01:44:35.721Z,5.92
2019-03-20T01:45:29.780Z,5.89
2019-03-20T01:45:30.382Z,5.83
2019-03-20T01:45:30.974Z,5.89
2019-03-20T01:45:31.573Z,5.82
2019-03-20T01:45:32.173Z,5.95
2019-03-20T01:45:32.773Z,5.88
2019-03-20T01:45:33.373Z,5.92
2019-03-20T01:46:27.456Z,5.92
2019-03-20T01:46:28.027Z,5.91
2019-03-20T01:46:28.627Z,5.89
2019-03-20T01:46:29.225Z,5.91
2019-03-20T01:46:29.825Z,5.92
2019-03-20T01:46:30.425Z,5.93
2019-03-20T01:46:31.025Z,5.91
2019-03-20T01:47:25.082Z,5.92
2019-03-20T01:47:25.679Z,5.96
2019-03-20T01:47:26.278Z,5.95
2019-03-20T01:47:26.878Z,6.03
2019-03-20T01:47:27.477Z,5.86
2019-03-20T01:47:28.076Z,5.89
2019-03-20T01:47:28.677Z,6.01
2019-03-20T01:48:22.732Z,5.98
2019-03-20T01:48:23.328Z,6.01
2019-03-20T01:48:23.929Z,5.98
2019-03-20T01:48:24.530Z,5.86
2019-03-20T01:48:25.129Z,6.03
2019-03-20T01:48:25.730Z,5.95
2019-03-20T01:48:26.328Z,5.96
2019-03-20T01:49:20.383Z,6.01
2019-03-20T01:49:20.980Z,6.01
2019-03-20T01:49:21.580Z,5.98
2019-03-20T01:49:22.181Z,6.03
2019-03-20T01:49:22.780Z,5.85
2019-03-20T01:49:23.380Z,5.98
2019-03-20T01:49:24.047Z,5.96
2019-03-20T01:50:18.038Z,5.95
2019-03-20T01:50:18.632Z,6.01
2019-03-20T01:50:19.232Z,5.98
2019-03-20T01:50:19.832Z,6.01
2019-03-20T01:50:20.431Z,6.00
2019-03-20T01:50:21.031Z,6.01
2019-03-20T01:50:21.634Z,5.98
2019-03-20T01:51:15.688Z,5.96
2019-03-20T01:51:16.283Z,5.96
2019-03-20T01:51:16.921Z,6.01
2019-03-20T01:51:17.483Z,5.96
2019-03-20T01:51:18.082Z,6.00
2019-03-20T01:51:18.682Z,6.03
2019-03-20T01:51:19.282Z,6.01
2019-03-20T01:52:13.365Z,5.95
2019-03-20T01:52:13.936Z,6.00
2019-03-20T01:52:14.537Z,5.98
2019-03-20T01:52:15.137Z,6.04
2019-03-20T01:52:15.734Z,5.93
2019-03-20T01:52:16.335Z,5.96
2019-03-20T01:52:16.936Z,5.98
2019-03-20T01:53:10.990Z,5.88
2019-03-20T01:53:11.587Z,6.01
2019-03-20T01:53:12.188Z,5.96
2019-03-20T01:53:12.786Z,5.98
2019-03-20T01:53:13.386Z,6.01
2019-03-20T01:53:13.987Z,6.00
2019-03-20T01:53:14.586Z,5.98
2019-03-20T01:54:08.644Z,5.98
2019-03-20T01:54:09.240Z,6.01
2019-03-20T01:54:09.841Z,5.92
2019-03-20T01:54:10.438Z,6.01
2019-03-20T01:54:11.039Z,6.01
2019-03-20T01:54:11.638Z,5.96
2019-03-20T01:54:12.240Z,5.95
2019-03-20T01:55:06.295Z,5.95
2019-03-20T01:55:06.891Z,6.01
2019-03-20T01:55:07.491Z,6.00
2019-03-20T01:55:08.090Z,6.00
2019-03-20T01:55:08.691Z,5.95
2019-03-20T01:55:09.290Z,6.00
2019-03-20T01:55:09.890Z,5.98
2019-03-20T01:56:03.438Z,5.92
2019-03-20T01:56:04.035Z,6.03
2019-03-20T01:56:04.631Z,5.98
2019-03-20T01:56:05.232Z,5.95
2019-03-20T01:56:05.831Z,6.00
2019-03-20T01:56:06.433Z,5.98
2019-03-20T01:56:07.031Z,6.01
2019-03-20T01:56:07.630Z,6.00
2019-03-20T01:57:01.622Z,6.01
2019-03-20T01:57:02.194Z,6.00
2019-03-20T01:57:02.794Z,6.03
2019-03-20T01:57:03.396Z,5.95
2019-03-20T01:57:03.993Z,5.92
2019-03-20T01:57:04.595Z,5.95
2019-03-20T01:57:05.207Z,5.92
2019-03-20T01:58:19.217Z,5.91
2019-03-20T01:58:19.815Z,6.06
2019-03-20T01:58:20.414Z,6.01
2019-03-20T01:58:21.014Z,5.98
2019-03-20T01:58:21.615Z,6.04
2019-03-20T01:58:22.213Z,6.01
2019-03-20T01:58:22.813Z,6.03
2019-03-20T01:59:16.359Z,5.98
2019-03-20T01:59:16.955Z,6.01
2019-03-20T01:59:17.556Z,6.06
2019-03-20T01:59:18.157Z,5.93
2019-03-20T01:59:18.754Z,6.03
2019-03-20T01:59:19.356Z,6.06
2019-03-20T01:59:19.954Z,5.98
2019-03-20T01:59:20.553Z,6.01
2019-03-20T02:00:14.625Z,5.93
2019-03-20T02:00:15.219Z,6.03
2019-03-20T02:00:15.823Z,6.03
2019-03-20T02:00:16.419Z,6.03
2019-03-20T02:00:17.023Z,6.00
2019-03-20T02:00:17.619Z,6.00
2019-03-20T02:00:18.219Z,6.04
2019-03-20T02:01:12.276Z,6.04
2019-03-20T02:01:12.872Z,6.03
2019-03-20T02:01:13.472Z,6.06
2019-03-20T02:01:14.072Z,6.06
2019-03-20T02:01:14.673Z,6.01
2019-03-20T02:01:15.271Z,6.03
2019-03-20T02:01:15.871Z,6.04
2019-03-20T02:02:09.956Z,6.07
2019-03-20T02:02:10.525Z,6.07
2019-03-20T02:02:11.124Z,6.06
2019-03-20T02:02:11.723Z,6.07
2019-03-20T02:02:12.322Z,5.98
2019-03-20T02:02:12.922Z,6.00
2019-03-20T02:02:13.523Z,6.07
2019-03-20T02:03:07.580Z,6.09
2019-03-20T02:03:08.177Z,6.07
2019-03-20T02:03:08.775Z,6.06
2019-03-20T02:03:09.374Z,6.06
2019-03-20T02:03:09.977Z,6.09
2019-03-20T02:03:10.576Z,6.04
2019-03-20T02:03:11.174Z,6.06
2019-03-20T02:04:05.238Z,6.09
2019-03-20T02:04:05.833Z,6.07
2019-03-20T02:04:06.427Z,6.09
2019-03-20T02:04:07.027Z,6.11
2019-03-20T02:04:07.630Z,6.11
2019-03-20T02:04:08.227Z,6.06
2019-03-20T02:04:08.840Z,6.03
2019-03-20T02:05:02.883Z,6.09
2019-03-20T02:05:03.484Z,6.11
2019-03-20T02:05:04.077Z,6.07
2019-03-20T02:05:04.678Z,6.04
2019-03-20T02:05:05.277Z,6.07
2019-03-20T02:05:05.878Z,6.09
2019-03-20T02:05:06.478Z,6.03
2019-03-20T02:06:00.533Z,6.03
2019-03-20T02:06:01.134Z,6.06
2019-03-20T02:06:01.731Z,6.06
2019-03-20T02:06:02.330Z,6.06
2019-03-20T02:06:02.929Z,6.11
2019-03-20T02:06:03.533Z,6.09
2019-03-20T02:06:04.131Z,6.09
2019-03-20T02:06:58.211Z,6.03
2019-03-20T02:06:58.785Z,6.09
2019-03-20T02:06:59.390Z,6.09
2019-03-20T02:06:59.981Z,6.11
2019-03-20T02:07:00.581Z,6.10
2019-03-20T02:07:01.181Z,6.10
2019-03-20T02:07:01.783Z,6.14
2019-03-20T02:07:55.840Z,6.10
2019-03-20T02:07:56.433Z,6.10
2019-03-20T02:07:57.035Z,6.04
2019-03-20T02:07:57.634Z,6.16
2019-03-20T02:07:58.233Z,6.07
2019-03-20T02:07:58.835Z,6.06
2019-03-20T02:07:59.433Z,6.14
2019-03-20T02:08:53.488Z,6.21
2019-03-20T02:08:54.086Z,6.14
2019-03-20T02:08:54.685Z,6.11
2019-03-20T02:08:55.286Z,6.18
2019-03-20T02:08:55.885Z,6.19
2019-03-20T02:08:56.494Z,6.16
2019-03-20T02:08:57.085Z,6.14
2019-03-20T02:09:51.142Z,6.14
2019-03-20T02:09:51.737Z,6.13
2019-03-20T02:09:52.343Z,6.16
2019-03-20T02:09:52.937Z,6.18
2019-03-20T02:09:53.538Z,6.18
2019-03-20T02:09:54.136Z,6.16
2019-03-20T02:09:54.737Z,6.19
2019-03-20T02:10:48.793Z,6.22
2019-03-20T02:10:49.390Z,6.21
2019-03-20T02:10:49.989Z,6.26
2019-03-20T02:10:50.588Z,6.22
2019-03-20T02:10:51.188Z,6.18
2019-03-20T02:10:51.788Z,6.16
2019-03-20T02:10:52.387Z,6.22
2019-03-20T02:11:46.504Z,6.26
2019-03-20T02:11:47.040Z,6.22
2019-03-20T02:11:47.640Z,6.18
2019-03-20T02:11:48.239Z,6.25
2019-03-20T02:11:48.840Z,6.19
2019-03-20T02:11:49.442Z,6.16
2019-03-20T02:11:50.044Z,6.26
2019-03-20T02:12:44.095Z,6.16
2019-03-20T02:12:44.698Z,6.26
2019-03-20T02:12:45.291Z,6.18
2019-03-20T02:12:45.890Z,6.22
2019-03-20T02:12:46.492Z,6.26
2019-03-20T02:12:47.091Z,6.22
2019-03-20T02:12:47.693Z,6.21
2019-03-20T02:13:41.747Z,6.28
2019-03-20T02:13:42.344Z,6.28
2019-03-20T02:13:42.943Z,6.25
2019-03-20T02:13:43.546Z,6.29
2019-03-20T02:13:44.144Z,6.25
2019-03-20T02:13:44.743Z,6.28
2019-03-20T02:13:45.356Z,6.30
2019-03-20T02:14:39.399Z,6.29
2019-03-20T02:14:39.996Z,6.32
2019-03-20T02:14:40.596Z,6.21
2019-03-20T02:14:41.195Z,6.32
2019-03-20T02:14:41.796Z,6.33
2019-03-20T02:14:42.395Z,6.32
2019-03-20T02:14:42.995Z,6.33
2019-03-20T02:15:39.430Z,6.21
2019-03-20T02:15:39.553Z,6.30
2019-03-20T02:15:39.691Z,6.29
2019-03-20T02:15:39.761Z,6.30
2019-03-20T02:15:39.814Z,6.30
2019-03-20T02:15:40.047Z,6.32
2019-03-20T02:15:40.646Z,6.30
2019-03-20T02:16:34.742Z,6.33
2019-03-20T02:16:35.300Z,6.36
2019-03-20T02:16:35.898Z,6.28
2019-03-20T02:16:36.500Z,6.30
2019-03-20T02:16:37.098Z,6.29
2019-03-20T02:16:37.698Z,6.32
2019-03-20T02:16:38.298Z,6.30
2019-03-20T02:17:32.355Z,6.29
2019-03-20T02:17:32.951Z,6.32
2019-03-20T02:17:33.553Z,6.33
2019-03-20T02:17:34.153Z,6.30
2019-03-20T02:17:34.756Z,6.32
2019-03-20T02:17:35.353Z,6.38
2019-03-20T02:17:35.951Z,6.35
2019-03-20T02:18:30.007Z,6.30
2019-03-20T02:18:30.604Z,6.41
2019-03-20T02:18:31.203Z,6.35
2019-03-20T02:18:31.801Z,6.43
2019-03-20T02:18:32.402Z,6.36
2019-03-20T02:18:33.002Z,6.41
2019-03-20T02:18:33.602Z,6.43
2019-03-20T02:19:27.659Z,6.36